Time;durP1;ratioP1;P1;durP2;ratioP2;P2;SDS_P1;SDS_P2;PMS_P1;PMS_P2;Temp;Humidity;BMP_temperature;BMP_pressure;BME280_temperature;BME280_humidity;BME280_pressure;Samples;Min_cycle;Max_cycle;Signal;HPM_P1;HPM_P2
2023/05/28 00:01:55;;;;;;;7.50;2.53;;;;;;;;;;4951300;28;20569;-68
2023/05/28 00:04:21;;;;;;;6.80;2.90;;;;;;;;;;4943569;28;20677;-70
2023/05/28 00:06:48;;;;;;;7.80;2.97;;;;;;;;;;4954364;28;20586;-69
2023/05/28 00:09:14;;;;;;;5.38;3.00;;;;;;;;;;4954020;28;20035;-70
2023/05/28 00:11:40;;;;;;;5.00;2.42;;;;;;;;;;4927894;28;20053;-70
2023/05/28 00:14:05;;;;;;;5.60;2.65;;;;;;;;;;4948985;28;20582;-71
2023/05/28 00:16:31;;;;;;;5.18;2.75;;;;;;;;;;4947748;28;20046;-68
2023/05/28 00:18:56;;;;;;;4.30;2.50;;;;;;;;;;4946230;28;20102;-69
2023/05/28 00:21:22;;;;;;;5.18;2.60;;;;;;;;;;4951710;28;20043;-68
2023/05/28 00:23:47;;;;;;;4.68;2.15;;;;;;;;;;4956598;28;20133;-68
2023/05/28 00:26:12;;;;;;;3.47;2.00;;;;;;;;;;4940925;28;20043;-67
2023/05/28 00:28:38;;;;;;;5.60;1.92;;;;;;;;;;4950660;28;20039;-69
2023/05/28 00:31:03;;;;;;;6.63;2.63;;;;;;;;;;4948121;28;20443;-68
2023/05/28 00:33:29;;;;;;;3.10;2.17;;;;;;;;;;4943298;28;20062;-68
2023/05/28 00:35:55;;;;;;;7.03;2.38;;;;;;;;;;4954973;28;20130;-69
2023/05/28 00:38:22;;;;;;;4.90;2.00;;;;;;;;;;4951236;28;20517;-68
2023/05/28 00:40:47;;;;;;;5.88;2.20;;;;;;;;;;4941318;28;20218;-69
2023/05/28 00:43:13;;;;;;;5.40;2.00;;;;;;;;;;4955277;28;20089;-68
2023/05/28 00:45:38;;;;;;;3.50;2.20;;;;;;;;;;4945255;28;20053;-69
2023/05/28 00:48:04;;;;;;;4.90;2.40;;;;;;;;;;4951059;28;20104;-69
2023/05/28 00:50:30;;;;;;;5.47;2.55;;;;;;;;;;4951815;28;20058;-69
2023/05/28 00:52:55;;;;;;;4.07;2.10;;;;;;;;;;4944359;28;20038;-69
2023/05/28 00:55:21;;;;;;;5.05;2.50;;;;;;;;;;4948508;28;20047;-69
2023/05/28 00:57:48;;;;;;;4.82;2.05;;;;;;;;;;4960153;28;20621;-70
2023/05/28 01:00:15;;;;;;;3.83;1.80;;;;;;;;;;4944402;28;20598;-69
2023/05/28 01:02:41;;;;;;;5.80;2.10;;;;;;;;;;4957211;28;20046;-69
2023/05/28 01:05:07;;;;;;;4.47;1.92;;;;;;;;;;4958077;28;20565;-69
2023/05/28 01:07:33;;;;;;;6.28;2.00;;;;;;;;;;4960200;28;20027;-70
2023/05/28 01:09:59;;;;;;;4.18;2.08;;;;;;;;;;4947943;28;20046;-69
2023/05/28 01:12:25;;;;;;;3.13;1.83;;;;;;;;;;4960397;28;20046;-70
2023/05/28 01:14:52;;;;;;;3.60;1.90;;;;;;;;;;4952834;28;20495;-67
2023/05/28 01:17:18;;;;;;;5.25;1.95;;;;;;;;;;4950511;28;20043;-70
2023/05/28 01:19:47;;;;;;;2.88;1.83;;;;;;;;;;4959265;28;20129;-70
2023/05/28 01:22:17;;;;;;;4.88;2.30;;;;;;;;;;4943978;28;20034;-70
2023/05/28 01:24:44;;;;;;;5.50;2.40;;;;;;;;;;4959018;28;20177;-70
2023/05/28 01:27:10;;;;;;;4.90;2.38;;;;;;;;;;4956742;28;20041;-69
2023/05/28 01:29:36;;;;;;;5.38;2.28;;;;;;;;;;4949342;28;20073;-70
2023/05/28 01:32:03;;;;;;;5.20;2.58;;;;;;;;;;4952643;28;20046;-70
2023/05/28 01:34:28;;;;;;;5.15;2.58;;;;;;;;;;4956326;28;20046;-70
2023/05/28 01:37:07;;;;;;;3.78;2.22;;;;;;;;;;4948187;28;20042;-70
2023/05/28 01:39:37;;;;;;;3.40;2.15;;;;;;;;;;4956245;28;20100;-70
2023/05/28 01:42:03;;;;;;;3.45;2.38;;;;;;;;;;4947911;28;20129;-70
2023/05/28 01:44:29;;;;;;;5.85;2.15;;;;;;;;;;4951970;28;20038;-70
2023/05/28 01:46:55;;;;;;;4.30;2.30;;;;;;;;;;4952099;28;20046;-70
2023/05/28 01:49:21;;;;;;;4.57;2.35;;;;;;;;;;4930331;28;20110;-70
2023/05/28 01:51:47;;;;;;;7.22;2.83;;;;;;;;;;4949337;28;20531;-69
2023/05/28 01:54:12;;;;;;;4.85;2.30;;;;;;;;;;4946995;28;20050;-69
2023/05/28 01:56:38;;;;;;;5.18;2.20;;;;;;;;;;4956431;28;20042;-69
2023/05/28 01:59:03;;;;;;;3.95;2.13;;;;;;;;;;4956995;28;20038;-69
2023/05/28 02:01:30;;;;;;;6.13;2.42;;;;;;;;;;4944983;28;20041;-69
2023/05/28 02:03:57;;;;;;;7.72;2.58;;;;;;;;;;4958369;28;21006;-69
2023/05/28 02:06:23;;;;;;;21.45;3.85;;;;;;;;;;4949988;28;20511;-69
2023/05/28 02:08:49;;;;;;;4.68;2.20;;;;;;;;;;4941659;28;20042;-69
2023/05/28 02:11:15;;;;;;;7.13;2.72;;;;;;;;;;4954957;28;20035;-69
2023/05/28 02:13:40;;;;;;;3.70;2.03;;;;;;;;;;4956076;28;20050;-69
2023/05/28 02:16:06;;;;;;;4.28;2.40;;;;;;;;;;4941923;28;20046;-69
2023/05/28 02:18:32;;;;;;;5.32;2.35;;;;;;;;;;4955797;28;20042;-69
2023/05/28 02:20:58;;;;;;;7.90;2.55;;;;;;;;;;4957115;28;20130;-69
2023/05/28 02:23:24;;;;;;;6.15;2.20;;;;;;;;;;4946560;28;20039;-69
2023/05/28 02:25:49;;;;;;;6.53;2.30;;;;;;;;;;4955878;28;20755;-69
2023/05/28 02:28:14;;;;;;;4.75;2.30;;;;;;;;;;4949461;28;20063;-69
2023/05/28 02:30:40;;;;;;;5.55;2.58;;;;;;;;;;4945524;28;20038;-69
2023/05/28 02:33:05;;;;;;;4.35;2.10;;;;;;;;;;4954120;28;20050;-69
2023/05/28 02:35:31;;;;;;;3.70;1.92;;;;;;;;;;4958064;28;20132;-69
2023/05/28 02:37:56;;;;;;;4.38;2.40;;;;;;;;;;4943162;28;20035;-69
2023/05/28 02:40:22;;;;;;;4.68;2.22;;;;;;;;;;4953093;28;20046;-69
2023/05/28 02:42:47;;;;;;;4.55;2.45;;;;;;;;;;4958441;28;20038;-69
2023/05/28 02:45:13;;;;;;;4.10;2.38;;;;;;;;;;4943518;28;20031;-69
2023/05/28 02:47:39;;;;;;;6.28;2.38;;;;;;;;;;4953061;28;20042;-70
2023/05/28 02:50:05;;;;;;;4.90;2.25;;;;;;;;;;4949041;28;20090;-69
2023/05/28 02:52:30;;;;;;;7.97;2.95;;;;;;;;;;4946754;28;20039;-69
2023/05/28 02:54:55;;;;;;;4.68;2.72;;;;;;;;;;4955074;28;20046;-69
2023/05/28 02:57:22;;;;;;;5.40;2.40;;;;;;;;;;4958112;28;20051;-69
2023/05/28 02:59:47;;;;;;;4.45;2.00;;;;;;;;;;4940095;28;20052;-69
2023/05/28 03:02:12;;;;;;;5.43;2.22;;;;;;;;;;4947251;28;20093;-69
2023/05/28 03:04:38;;;;;;;4.25;1.90;;;;;;;;;;4939462;28;20130;-69
2023/05/28 03:07:03;;;;;;;4.88;2.22;;;;;;;;;;4951867;28;20123;-69
2023/05/28 03:09:29;;;;;;;4.68;2.00;;;;;;;;;;4942838;28;20577;-70
2023/05/28 03:11:54;;;;;;;3.40;1.85;;;;;;;;;;4930134;28;20128;-69
2023/05/28 03:14:20;;;;;;;5.45;2.78;;;;;;;;;;4949610;28;20049;-69
2023/05/28 03:16:45;;;;;;;5.75;2.35;;;;;;;;;;4941031;28;20153;-69
2023/05/28 03:19:11;;;;;;;5.57;2.47;;;;;;;;;;4945094;28;20031;-69
2023/05/28 03:21:36;;;;;;;5.05;2.40;;;;;;;;;;4957262;28;20093;-69
2023/05/28 03:24:02;;;;;;;5.88;2.47;;;;;;;;;;4949423;28;20523;-69
2023/05/28 03:26:27;;;;;;;8.70;2.22;;;;;;;;;;4947662;28;20042;-69
2023/05/28 03:28:52;;;;;;;7.15;1.90;;;;;;;;;;4952234;28;20542;-69
2023/05/28 03:31:19;;;;;;;5.13;2.17;;;;;;;;;;4952045;28;20090;-69
2023/05/28 03:33:45;;;;;;;3.83;1.90;;;;;;;;;;4942652;28;20073;-69
2023/05/28 03:36:10;;;;;;;4.35;1.98;;;;;;;;;;4954819;28;20054;-69
2023/05/28 03:38:36;;;;;;;5.25;1.80;;;;;;;;;;4958306;28;20085;-69
2023/05/28 03:41:01;;;;;;;5.32;2.47;;;;;;;;;;4944532;28;20292;-69
2023/05/28 03:43:26;;;;;;;2.92;1.90;;;;;;;;;;4957506;28;20722;-69
2023/05/28 03:45:52;;;;;;;5.35;1.92;;;;;;;;;;4946696;28;20138;-69
2023/05/28 03:48:17;;;;;;;6.32;2.28;;;;;;;;;;4942198;28;20063;-69
2023/05/28 03:50:42;;;;;;;4.63;2.08;;;;;;;;;;4950458;28;20518;-69
2023/05/28 03:53:08;;;;;;;3.35;1.80;;;;;;;;;;4955004;28;20038;-69
2023/05/28 03:55:33;;;;;;;4.50;2.35;;;;;;;;;;4942093;28;20045;-69
2023/05/28 03:57:59;;;;;;;3.67;1.95;;;;;;;;;;4950769;28;20495;-69
2023/05/28 04:00:24;;;;;;;3.83;1.83;;;;;;;;;;4953884;28;20066;-69
2023/05/28 04:02:50;;;;;;;4.60;2.28;;;;;;;;;;4941580;28;20030;-68
2023/05/28 04:05:15;;;;;;;3.90;2.10;;;;;;;;;;4955890;28;20121;-69
2023/05/28 04:07:41;;;;;;;6.07;2.42;;;;;;;;;;4952647;28;20042;-68
2023/05/28 04:10:07;;;;;;;5.32;2.20;;;;;;;;;;4945786;28;20550;-69
2023/05/28 04:12:32;;;;;;;5.80;2.60;;;;;;;;;;4952328;28;20520;-68
2023/05/28 04:14:58;;;;;;;5.72;2.15;;;;;;;;;;4955080;28;20047;-69
2023/05/28 04:17:24;;;;;;;7.28;3.13;;;;;;;;;;4932940;28;20043;-69
2023/05/28 04:19:51;;;;;;;6.72;2.67;;;;;;;;;;4947318;28;20153;-69
2023/05/28 04:22:17;;;;;;;4.05;1.98;;;;;;;;;;4956047;28;20042;-69
2023/05/28 04:24:42;;;;;;;5.80;2.13;;;;;;;;;;4947480;28;20051;-69
2023/05/28 04:27:08;;;;;;;7.32;2.50;;;;;;;;;;4955075;28;20045;-69
2023/05/28 04:29:33;;;;;;;3.58;2.25;;;;;;;;;;4943390;28;20410;-69
2023/05/28 04:31:58;;;;;;;4.63;2.67;;;;;;;;;;4954438;28;20170;-69
2023/05/28 04:34:24;;;;;;;4.25;2.58;;;;;;;;;;4960699;28;20129;-69
2023/05/28 04:36:51;;;;;;;6.05;2.10;;;;;;;;;;4949936;28;20034;-69
2023/05/28 04:39:17;;;;;;;5.82;2.47;;;;;;;;;;4954766;28;20055;-68
2023/05/28 04:41:43;;;;;;;7.18;2.80;;;;;;;;;;4953003;28;20061;-68
2023/05/28 04:44:09;;;;;;;5.90;2.38;;;;;;;;;;4943265;28;20115;-69
2023/05/28 04:46:36;;;;;;;6.35;3.10;;;;;;;;;;4955281;28;20129;-64
2023/05/28 04:49:02;;;;;;;5.60;2.80;;;;;;;;;;4952976;28;20035;-66
2023/05/28 04:51:28;;;;;;;3.03;2.05;;;;;;;;;;4945063;28;20129;-65
2023/05/28 04:53:53;;;;;;;3.53;2.20;;;;;;;;;;4954419;28;20129;-65
2023/05/28 04:56:19;;;;;;;5.85;2.33;;;;;;;;;;4955899;28;20050;-66
2023/05/28 04:58:46;;;;;;;4.57;2.00;;;;;;;;;;4946708;28;20041;-66
2023/05/28 05:01:14;;;;;;;3.08;1.85;;;;;;;;;;4952057;28;20113;-66
2023/05/28 05:03:40;;;;;;;5.47;2.25;;;;;;;;;;4955065;28;20042;-68
2023/05/28 05:06:06;;;;;;;4.40;2.25;;;;;;;;;;4947573;28;20049;-68
2023/05/28 05:08:32;;;;;;;5.75;2.95;;;;;;;;;;4956721;28;20042;-66
2023/05/28 05:10:58;;;;;;;5.40;2.50;;;;;;;;;;4947093;28;20085;-64
2023/05/28 05:13:23;;;;;;;5.78;2.25;;;;;;;;;;4952562;28;20050;-67
2023/05/28 05:15:49;;;;;;;5.57;2.10;;;;;;;;;;4952113;28;20571;-68
2023/05/28 05:18:14;;;;;;;5.18;2.42;;;;;;;;;;4949016;28;20423;-64
2023/05/28 05:20:39;;;;;;;3.95;2.28;;;;;;;;;;4951320;28;20108;-66
2023/05/28 05:23:05;;;;;;;3.50;1.77;;;;;;;;;;4957481;28;20129;-68
2023/05/28 05:25:30;;;;;;;4.00;2.25;;;;;;;;;;4941849;28;20042;-69
2023/05/28 05:27:55;;;;;;;5.05;2.30;;;;;;;;;;4957147;28;20495;-68
2023/05/28 05:30:21;;;;;;;7.15;2.55;;;;;;;;;;4956616;28;20042;-68
2023/05/28 05:32:46;;;;;;;5.70;2.33;;;;;;;;;;4948028;28;20054;-68
2023/05/28 05:35:12;;;;;;;4.45;2.50;;;;;;;;;;4947775;28;20034;-68
2023/05/28 05:37:37;;;;;;;4.07;2.30;;;;;;;;;;4955590;28;20050;-68
2023/05/28 05:40:05;;;;;;;6.78;2.53;;;;;;;;;;4944117;28;20467;-68
2023/05/28 05:42:30;;;;;;;2.85;1.98;;;;;;;;;;4952183;28;20043;-67
2023/05/28 05:44:56;;;;;;;5.63;2.15;;;;;;;;;;4952572;28;20060;-68
2023/05/28 05:47:21;;;;;;;5.40;2.38;;;;;;;;;;4943367;28;20737;-68
2023/05/28 05:49:47;;;;;;;3.75;2.58;;;;;;;;;;4953075;28;20419;-68
2023/05/28 05:52:13;;;;;;;4.57;2.38;;;;;;;;;;4922573;28;20042;-67
2023/05/28 05:54:39;;;;;;;7.00;2.95;;;;;;;;;;4944316;28;20050;-68
2023/05/28 05:57:04;;;;;;;5.60;2.63;;;;;;;;;;4952742;28;20035;-68
2023/05/28 05:59:30;;;;;;;4.05;2.65;;;;;;;;;;4957935;28;20038;-67
2023/05/28 06:01:55;;;;;;;7.90;3.80;;;;;;;;;;4940781;28;20155;-68
2023/05/28 06:04:21;;;;;;;10.65;6.32;;;;;;;;;;4953237;28;20073;-67
2023/05/28 06:06:46;;;;;;;12.52;6.95;;;;;;;;;;4953941;28;20050;-67
2023/05/28 06:09:11;;;;;;;8.25;5.20;;;;;;;;;;4947556;28;20177;-67
2023/05/28 06:11:37;;;;;;;5.40;3.47;;;;;;;;;;4954061;28;20511;-67
2023/05/28 06:14:02;;;;;;;6.72;3.22;;;;;;;;;;4953908;28;20156;-67
2023/05/28 06:16:28;;;;;;;4.18;2.58;;;;;;;;;;4942499;28;20053;-67
2023/05/28 06:18:54;;;;;;;4.82;2.58;;;;;;;;;;4950148;28;20038;-67
2023/05/28 06:21:19;;;;;;;2.65;1.73;;;;;;;;;;4953534;28;20135;-69
2023/05/28 06:23:44;;;;;;;8.15;3.10;;;;;;;;;;4938494;28;20390;-66
2023/05/28 06:26:10;;;;;;;2.58;1.30;;;;;;;;;;4947145;28;20046;-67
2023/05/28 06:28:35;;;;;;;5.97;3.00;;;;;;;;;;4954140;28;20117;-66
2023/05/28 06:31:02;;;;;;;4.55;2.15;;;;;;;;;;4944430;28;20046;-68
2023/05/28 06:33:28;;;;;;;4.28;2.38;;;;;;;;;;4946534;28;20103;-67
2023/05/28 06:35:53;;;;;;;4.20;2.25;;;;;;;;;;4944297;28;20041;-69
2023/05/28 06:38:19;;;;;;;4.43;2.42;;;;;;;;;;4951557;28;20129;-69
2023/05/28 06:40:44;;;;;;;5.35;2.30;;;;;;;;;;4954463;28;20035;-69
2023/05/28 06:43:10;;;;;;;4.40;1.85;;;;;;;;;;4954702;28;20450;-69
2023/05/28 06:45:35;;;;;;;4.20;2.33;;;;;;;;;;4941744;28;20039;-66
2023/05/28 06:48:01;;;;;;;3.90;1.58;;;;;;;;;;4949697;28;20039;-65
2023/05/28 06:50:26;;;;;;;3.85;2.10;;;;;;;;;;4941554;28;20042;-69
2023/05/28 06:52:51;;;;;;;4.32;2.53;;;;;;;;;;4949939;28;20054;-68
2023/05/28 06:55:17;;;;;;;6.45;2.25;;;;;;;;;;4949811;28;20549;-68
2023/05/28 06:57:44;;;;;;;5.50;2.63;;;;;;;;;;4940635;28;20042;-67
2023/05/28 07:00:14;;;;;;;3.25;2.28;;;;;;;;;;4943989;28;20066;-69
2023/05/28 07:02:39;;;;;;;4.10;1.88;;;;;;;;;;4952062;28;20542;-67
2023/05/28 07:05:05;;;;;;;3.70;2.17;;;;;;;;;;4946102;28;20043;-67
2023/05/28 07:07:31;;;;;;;3.58;2.03;;;;;;;;;;4951514;28;20046;-67
2023/05/28 07:09:57;;;;;;;3.83;2.17;;;;;;;;;;4953277;28;20484;-66
2023/05/28 07:12:22;;;;;;;4.72;2.80;;;;;;;;;;4944160;28;20145;-66
2023/05/28 07:14:47;;;;;;;1.80;1.00;;;;;;;;;;4951592;28;20039;-66
2023/05/28 07:17:13;;;;;;;7.03;2.80;;;;;;;;;;4951271;28;20086;-66
2023/05/28 07:19:38;;;;;;;4.32;2.28;;;;;;;;;;4944937;28;20034;-67
2023/05/28 07:22:03;;;;;;;6.15;1.80;;;;;;;;;;4955610;28;20403;-65
2023/05/28 07:24:29;;;;;;;4.80;1.85;;;;;;;;;;4954811;28;21167;-66
2023/05/28 07:26:54;;;;;;;7.00;2.60;;;;;;;;;;4950192;28;20082;-66
2023/05/28 07:29:20;;;;;;;4.72;2.38;;;;;;;;;;4955415;28;20046;-67
2023/05/28 07:31:45;;;;;;;6.78;2.72;;;;;;;;;;4953009;28;20128;-65
2023/05/28 07:34:10;;;;;;;3.25;1.90;;;;;;;;;;4946380;28;20496;-65
2023/05/28 07:36:37;;;;;;;5.93;2.03;;;;;;;;;;4955317;28;20049;-66
2023/05/28 07:39:03;;;;;;;2.38;1.30;;;;;;;;;;4956726;28;20644;-65
2023/05/28 07:41:30;;;;;;;4.25;2.08;;;;;;;;;;4945491;28;20034;-66
2023/05/28 07:43:55;;;;;;;5.65;2.35;;;;;;;;;;4953150;28;20081;-66
2023/05/28 07:46:21;;;;;;;5.75;2.10;;;;;;;;;;4938662;28;20054;-65
2023/05/28 07:48:48;;;;;;;4.93;2.35;;;;;;;;;;4955444;28;20042;-66
2023/05/28 07:51:13;;;;;;;2.95;1.65;;;;;;;;;;4956417;28;20034;-67
2023/05/28 07:53:39;;;;;;;5.10;2.50;;;;;;;;;;4947628;28;20092;-66
2023/05/28 07:56:04;;;;;;;2.97;1.35;;;;;;;;;;4954246;28;20042;-66
2023/05/28 07:58:30;;;;;;;4.13;2.25;;;;;;;;;;4953167;28;20527;-67
2023/05/28 08:00:55;;;;;;;6.65;2.72;;;;;;;;;;4945114;28;20041;-66
2023/05/28 08:03:22;;;;;;;3.75;2.17;;;;;;;;;;4955402;28;20097;-65
2023/05/28 08:05:47;;;;;;;7.18;2.45;;;;;;;;;;4958951;28;20069;-65
2023/05/28 08:08:12;;;;;;;5.53;2.75;;;;;;;;;;4942825;28;20125;-67
2023/05/28 08:10:38;;;;;;;6.18;2.63;;;;;;;;;;4955321;28;20038;-66
2023/05/28 08:13:03;;;;;;;5.90;2.03;;;;;;;;;;4952921;28;20061;-66
2023/05/28 08:15:28;;;;;;;4.82;2.50;;;;;;;;;;4936676;28;20516;-65
2023/05/28 08:17:54;;;;;;;5.22;2.22;;;;;;;;;;4951316;28;20271;-66
2023/05/28 08:20:22;;;;;;;4.72;2.42;;;;;;;;;;4955326;28;20042;-69
2023/05/28 08:22:47;;;;;;;6.47;2.60;;;;;;;;;;4949215;28;20090;-67
2023/05/28 08:25:13;;;;;;;3.50;2.03;;;;;;;;;;4952892;28;20042;-69
2023/05/28 08:27:38;;;;;;;1.88;1.08;;;;;;;;;;4953948;28;20061;-66
2023/05/28 08:30:05;;;;;;;5.85;2.80;;;;;;;;;;4940922;28;20404;-66
2023/05/28 08:32:30;;;;;;;3.97;1.83;;;;;;;;;;4953190;28;20129;-66
2023/05/28 08:34:56;;;;;;;6.07;2.15;;;;;;;;;;4953446;28;20118;-66
2023/05/28 08:37:21;;;;;;;4.78;1.50;;;;;;;;;;4946601;28;20221;-67
2023/05/28 08:39:46;;;;;;;3.55;1.50;;;;;;;;;;4956541;28;20049;-67
2023/05/28 08:42:12;;;;;;;2.88;0.90;;;;;;;;;;4950693;28;20039;-67
2023/05/28 08:44:37;;;;;;;3.38;1.63;;;;;;;;;;4943532;28;21079;-67
2023/05/28 08:47:04;;;;;;;3.38;1.67;;;;;;;;;;4948191;28;20045;-68
2023/05/28 08:49:38;;;;;;;3.70;1.90;;;;;;;;;;4957295;28;20661;-68
2023/05/28 08:52:05;;;;;;;4.15;2.00;;;;;;;;;;4925059;28;20677;-68
2023/05/28 08:54:30;;;;;;;3.67;1.50;;;;;;;;;;4951204;28;20089;-64
2023/05/28 08:56:56;;;;;;;5.25;1.70;;;;;;;;;;4943871;28;20043;-68
2023/05/28 08:59:22;;;;;;;3.63;1.85;;;;;;;;;;4954004;28;20722;-65
2023/05/28 09:01:49;;;;;;;4.65;1.55;;;;;;;;;;4944800;28;20046;-63
2023/05/28 09:04:14;;;;;;;3.03;1.60;;;;;;;;;;4935448;28;20035;-67
2023/05/28 09:06:40;;;;;;;3.47;1.95;;;;;;;;;;4950655;28;20074;-66
2023/05/28 09:09:07;;;;;;;3.53;1.55;;;;;;;;;;4949888;28;20053;-68
2023/05/28 09:11:33;;;;;;;3.00;1.30;;;;;;;;;;4946381;28;20594;-65
2023/05/28 09:14:08;;;;;;;2.78;1.45;;;;;;;;;;4954535;28;20625;-63
2023/05/28 09:16:33;;;;;;;2.53;1.65;;;;;;;;;;4949021;28;20066;-66
2023/05/28 09:19:03;;;;;;;3.30;1.63;;;;;;;;;;4945698;28;20727;-67
2023/05/28 09:21:29;;;;;;;4.00;1.70;;;;;;;;;;4960674;28;20035;-68
2023/05/28 09:23:55;;;;;;;4.82;2.25;;;;;;;;;;4948238;28;20534;-68
2023/05/28 09:26:20;;;;;;;6.10;2.25;;;;;;;;;;4953129;28;20039;-68
2023/05/28 09:28:46;;;;;;;5.80;2.33;;;;;;;;;;4958145;28;20108;-68
2023/05/28 09:31:12;;;;;;;4.53;1.80;;;;;;;;;;4937245;28;20093;-68
2023/05/28 09:33:47;;;;;;;5.95;2.05;;;;;;;;;;4957156;28;20046;-67
2023/05/28 09:36:16;;;;;;;3.80;1.80;;;;;;;;;;4945879;28;20043;-68
2023/05/28 09:38:42;;;;;;;5.43;2.00;;;;;;;;;;4954695;28;20133;-67
2023/05/28 09:41:24;;;;;;;3.75;1.60;;;;;;;;;;4957084;28;20392;-68
2023/05/28 09:44:00;;;;;;;4.43;1.90;;;;;;;;;;4948710;28;20030;-68
2023/05/28 09:46:29;;;;;;;5.05;2.10;;;;;;;;;;4953140;28;20042;-67
2023/05/28 09:48:55;;;;;;;4.60;2.08;;;;;;;;;;4917965;28;20476;-67
2023/05/28 09:51:23;;;;;;;3.85;1.60;;;;;;;;;;4961485;28;20125;-67
2023/05/28 09:53:50;;;;;;;3.80;2.13;;;;;;;;;;4953030;28;20035;-67
2023/05/28 09:56:16;;;;;;;3.13;1.38;;;;;;;;;;4949239;28;20508;-68
2023/05/28 09:58:44;;;;;;;2.60;1.50;;;;;;;;;;4953938;28;20038;-68
2023/05/28 10:01:13;;;;;;;4.78;2.38;;;;;;;;;;4945134;28;20503;-67
2023/05/28 10:03:43;;;;;;;4.35;1.88;;;;;;;;;;4954075;28;20404;-68
2023/05/28 10:06:17;;;;;;;2.70;1.67;;;;;;;;;;4954704;28;20053;-68
2023/05/28 10:08:49;;;;;;;5.55;2.40;;;;;;;;;;4944243;28;20050;-68
2023/05/28 10:11:16;;;;;;;4.03;1.80;;;;;;;;;;4952724;28;20047;-68
2023/05/28 10:13:43;;;;;;;5.45;1.92;;;;;;;;;;4948939;28;20038;-68
2023/05/28 10:16:09;;;;;;;3.33;1.80;;;;;;;;;;4955886;28;20046;-68
2023/05/28 10:18:37;;;;;;;3.55;1.83;;;;;;;;;;4955081;28;20101;-68
2023/05/28 10:21:05;;;;;;;2.78;1.58;;;;;;;;;;4944013;28;20049;-68
2023/05/28 10:23:31;;;;;;;4.28;2.03;;;;;;;;;;4954594;28;20070;-68
2023/05/28 10:25:57;;;;;;;4.18;1.67;;;;;;;;;;4944053;28;20030;-68
2023/05/28 10:28:22;;;;;;;3.85;2.05;;;;;;;;;;4953891;28;20051;-68
2023/05/28 10:31:03;;;;;;;4.95;2.28;;;;;;;;;;4953407;28;20057;-68
2023/05/28 10:33:28;;;;;;;3.97;1.85;;;;;;;;;;4925980;28;20073;-68
2023/05/28 10:35:56;;;;;;;5.32;1.90;;;;;;;;;;4927743;28;20046;-67
2023/05/28 10:38:23;;;;;;;3.03;1.60;;;;;;;;;;4938461;28;20043;-67
2023/05/28 10:40:48;;;;;;;4.60;1.98;;;;;;;;;;4955553;28;20034;-68
2023/05/28 10:43:38;;;;;;;3.78;1.80;;;;;;;;;;4956403;28;20039;-68
2023/05/28 10:46:08;;;;;;;3.83;1.75;;;;;;;;;;4932135;28;20570;-68
2023/05/28 10:48:37;;;;;;;4.88;1.92;;;;;;;;;;4946040;28;20042;-68
2023/05/28 10:51:04;;;;;;;3.80;1.80;;;;;;;;;;4916181;28;20484;-68
2023/05/28 10:53:30;;;;;;;3.45;1.83;;;;;;;;;;4954065;28;20062;-68
2023/05/28 10:55:56;;;;;;;3.72;1.55;;;;;;;;;;4955547;28;20150;-68
2023/05/28 10:58:35;;;;;;;3.53;1.60;;;;;;;;;;4957368;28;20075;-68
2023/05/28 11:01:11;;;;;;;2.35;1.50;;;;;;;;;;4918291;28;20052;-68
2023/05/28 11:03:41;;;;;;;3.33;1.52;;;;;;;;;;4916827;28;20117;-68
2023/05/28 11:06:07;;;;;;;4.07;1.40;;;;;;;;;;4953539;28;20039;-68
2023/05/28 11:08:39;;;;;;;5.00;2.08;;;;;;;;;;4954499;28;20034;-68
2023/05/28 11:11:05;;;;;;;4.43;2.17;;;;;;;;;;4944008;28;20042;-68
2023/05/28 11:13:31;;;;;;;4.22;2.22;;;;;;;;;;4954996;28;20153;-68
2023/05/28 11:16:06;;;;;;;4.55;2.17;;;;;;;;;;4927576;28;20047;-68
2023/05/28 11:18:31;;;;;;;4.82;1.70;;;;;;;;;;4931547;28;20130;-68
2023/05/28 11:21:08;;;;;;;4.05;1.92;;;;;;;;;;4953328;28;20138;-68
2023/05/28 11:23:37;;;;;;;5.85;1.92;;;;;;;;;;4944341;28;20702;-68
2023/05/28 11:26:22;;;;;;;5.70;2.00;;;;;;;;;;4956126;28;20046;-68
2023/05/28 11:28:48;;;;;;;3.33;2.00;;;;;;;;;;4943963;28;20052;-68
2023/05/28 11:31:15;;;;;;;4.60;1.63;;;;;;;;;;4953556;28;20038;-68
2023/05/28 11:33:40;;;;;;;3.25;1.70;;;;;;;;;;4955395;28;20034;-68
2023/05/28 11:36:06;;;;;;;5.18;1.65;;;;;;;;;;4944334;28;20037;-68
2023/05/28 11:38:32;;;;;;;5.13;1.90;;;;;;;;;;4956333;28;20034;-68
2023/05/28 11:41:01;;;;;;;3.30;1.70;;;;;;;;;;4944084;28;20141;-68
2023/05/28 11:43:27;;;;;;;4.07;1.70;;;;;;;;;;4956763;28;20121;-69
2023/05/28 11:46:00;;;;;;;3.83;1.70;;;;;;;;;;4954771;28;20532;-68
2023/05/28 11:48:28;;;;;;;3.03;1.65;;;;;;;;;;4942165;28;20054;-68
2023/05/28 11:50:59;;;;;;;4.13;1.83;;;;;;;;;;4955976;28;20077;-68
2023/05/28 11:53:29;;;;;;;3.63;1.80;;;;;;;;;;4945540;28;20116;-68
2023/05/28 11:55:54;;;;;;;4.30;1.80;;;;;;;;;;4953780;28;20050;-68
2023/05/28 11:58:29;;;;;;;4.63;2.10;;;;;;;;;;4953590;28;20043;-68
2023/05/28 12:00:56;;;;;;;4.72;2.42;;;;;;;;;;4939949;28;20042;-68
2023/05/28 12:03:25;;;;;;;3.53;2.15;;;;;;;;;;4956589;28;20101;-68
2023/05/28 12:05:51;;;;;;;3.53;1.70;;;;;;;;;;4941714;28;20045;-68
2023/05/28 12:08:18;;;;;;;4.63;1.52;;;;;;;;;;4955711;28;20050;-68
2023/05/28 12:10:44;;;;;;;3.83;1.60;;;;;;;;;;4953104;28;20042;-68
2023/05/28 12:13:12;;;;;;;4.35;1.88;;;;;;;;;;4955816;28;20040;-68
2023/05/28 12:15:38;;;;;;;4.22;1.67;;;;;;;;;;4927895;28;20036;-68
2023/05/28 12:18:04;;;;;;;2.97;1.73;;;;;;;;;;4947300;28;20050;-68
2023/05/28 12:20:32;;;;;;;4.75;1.92;;;;;;;;;;4933905;28;20539;-69
2023/05/28 12:23:01;;;;;;;2.85;1.90;;;;;;;;;;4949721;28;20038;-68
2023/05/28 12:25:26;;;;;;;3.15;1.77;;;;;;;;;;4957407;28;20715;-69
2023/05/28 12:27:51;;;;;;;4.63;1.80;;;;;;;;;;4946403;28;20092;-69
2023/05/28 12:30:17;;;;;;;2.47;1.42;;;;;;;;;;4952248;28;20041;-69
2023/05/28 12:32:42;;;;;;;3.80;2.20;;;;;;;;;;4950040;28;20126;-69
2023/05/28 12:35:08;;;;;;;3.97;1.70;;;;;;;;;;4941144;28;20047;-69
2023/05/28 12:37:33;;;;;;;3.50;1.63;;;;;;;;;;4948921;28;20031;-68
2023/05/28 12:39:59;;;;;;;5.32;1.80;;;;;;;;;;4949665;28;20038;-69
2023/05/28 12:42:24;;;;;;;3.53;2.10;;;;;;;;;;4943191;28;20035;-69
2023/05/28 12:44:50;;;;;;;2.90;1.65;;;;;;;;;;4948703;28;20034;-68
2023/05/28 12:47:15;;;;;;;3.65;1.88;;;;;;;;;;4948278;28;20126;-69
2023/05/28 12:49:41;;;;;;;3.65;1.70;;;;;;;;;;4947567;28;20468;-69
2023/05/28 12:52:06;;;;;;;3.05;1.92;;;;;;;;;;4953197;28;20411;-69
2023/05/28 12:54:33;;;;;;;2.60;1.48;;;;;;;;;;4952597;28;20138;-69
2023/05/28 12:56:58;;;;;;;3.45;1.73;;;;;;;;;;4949728;28;20062;-69
2023/05/28 12:59:25;;;;;;;3.85;1.55;;;;;;;;;;4961609;28;20043;-69
2023/05/28 13:01:51;;;;;;;3.65;1.48;;;;;;;;;;4955248;28;20077;-69
2023/05/28 13:04:17;;;;;;;8.23;1.85;;;;;;;;;;4949596;28;20058;-69
2023/05/28 13:06:43;;;;;;;4.43;2.00;;;;;;;;;;4952674;28;20039;-69
2023/05/28 13:09:12;;;;;;;5.15;2.00;;;;;;;;;;4960874;28;20533;-69
2023/05/28 13:11:38;;;;;;;4.57;1.80;;;;;;;;;;4950514;28;20106;-69
2023/05/28 13:14:03;;;;;;;3.92;1.85;;;;;;;;;;4958067;28;20050;-69
2023/05/28 13:16:29;;;;;;;3.40;1.80;;;;;;;;;;4943459;28;22177;-69
2023/05/28 13:18:55;;;;;;;2.95;1.70;;;;;;;;;;4957445;28;20121;-69
2023/05/28 13:21:21;;;;;;;3.38;1.60;;;;;;;;;;4956883;28;20516;-69
2023/05/28 13:23:48;;;;;;;3.63;1.73;;;;;;;;;;4922783;28;20053;-69
2023/05/28 13:26:14;;;;;;;4.25;2.00;;;;;;;;;;4954761;28;20062;-69
2023/05/28 13:28:39;;;;;;;3.30;1.90;;;;;;;;;;4943533;28;20039;-69
2023/05/28 13:31:05;;;;;;;4.05;1.83;;;;;;;;;;4934582;28;20530;-69
2023/05/28 13:33:30;;;;;;;3.47;1.50;;;;;;;;;;4961159;28;20046;-69
2023/05/28 13:35:55;;;;;;;2.40;1.30;;;;;;;;;;4958343;28;20614;-69
2023/05/28 13:38:21;;;;;;;2.78;1.45;;;;;;;;;;4943143;28;20101;-69
2023/05/28 13:40:47;;;;;;;3.88;1.67;;;;;;;;;;4953264;28;20125;-69
2023/05/28 13:43:14;;;;;;;5.22;1.83;;;;;;;;;;4950000;28;20053;-69
2023/05/28 13:45:40;;;;;;;3.03;1.65;;;;;;;;;;4946435;28;20061;-69
2023/05/28 13:48:06;;;;;;;3.13;1.77;;;;;;;;;;4954502;28;20050;-69
2023/05/28 13:50:32;;;;;;;2.65;1.75;;;;;;;;;;4955786;28;20042;-69
2023/05/28 13:52:58;;;;;;;3.58;1.75;;;;;;;;;;4948256;28;20125;-69
2023/05/28 13:55:23;;;;;;;3.08;1.75;;;;;;;;;;4959960;28;20046;-69
2023/05/28 13:57:49;;;;;;;3.47;2.00;;;;;;;;;;4959064;28;20045;-68
2023/05/28 14:00:17;;;;;;;3.88;1.73;;;;;;;;;;4946329;28;20500;-71
2023/05/28 14:02:42;;;;;;;4.10;1.80;;;;;;;;;;4947359;28;20516;-68
2023/05/28 14:05:08;;;;;;;3.17;1.52;;;;;;;;;;4952636;28;20155;-69
2023/05/28 14:07:33;;;;;;;3.70;1.70;;;;;;;;;;4946356;28;20147;-70
2023/05/28 14:09:58;;;;;;;3.65;1.70;;;;;;;;;;4956813;28;20073;-69
2023/05/28 14:12:24;;;;;;;4.80;2.13;;;;;;;;;;4941038;28;20053;-69
2023/05/28 14:14:49;;;;;;;5.55;2.55;;;;;;;;;;4956829;28;20046;-71
2023/05/28 14:17:15;;;;;;;3.67;1.90;;;;;;;;;;4951056;28;20097;-71
2023/05/28 14:19:40;;;;;;;3.97;1.63;;;;;;;;;;4953209;28;20031;-68
2023/05/28 14:22:06;;;;;;;2.92;1.42;;;;;;;;;;4951136;28;20046;-68
2023/05/28 14:24:31;;;;;;;2.47;1.42;;;;;;;;;;4951659;28;20117;-68
2023/05/28 14:26:56;;;;;;;2.95;1.75;;;;;;;;;;4942602;28;20046;-71
2023/05/28 14:29:22;;;;;;;2.50;1.67;;;;;;;;;;4952181;28;20045;-72
2023/05/28 14:31:47;;;;;;;4.38;1.77;;;;;;;;;;4939556;28;20520;-71
2023/05/28 14:34:12;;;;;;;3.45;1.45;;;;;;;;;;4944465;28;20582;-69
2023/05/28 14:36:38;;;;;;;4.53;1.70;;;;;;;;;;4956089;28;20046;-69
2023/05/28 14:39:03;;;;;;;2.83;1.55;;;;;;;;;;4952914;28;20038;-70